createdAt,value
2019-05-05T00:00:04.871Z,100367.43
2019-05-05T00:03:24.901Z,100373.90
2019-05-05T00:06:28.531Z,100386.10
2019-05-05T00:09:34.755Z,100396.54
2019-05-05T00:12:50.861Z,100396.84
2019-05-05T00:16:12.764Z,100399.03
2019-05-05T00:19:29.838Z,100395.33
2019-05-05T00:22:24.550Z,100397.58
2019-05-05T00:25:28.455Z,100399.20
2019-05-05T00:28:32.324Z,100402.11
2019-05-05T00:31:36.276Z,100407.45
2019-05-05T00:34:40.607Z,100408.05
2019-05-05T00:37:45.127Z,100412.01
2019-05-05T00:40:49.041Z,100412.44
2019-05-05T00:43:55.212Z,100409.88
2019-05-05T00:47:14.516Z,100421.53
2019-05-05T00:50:20.222Z,100427.17
2019-05-05T00:53:25.097Z,100428.92
2019-05-05T00:56:29.035Z,100436.71
2019-05-05T00:59:34.808Z,100442.36
2019-05-05T01:02:47.968Z,100448.78
2019-05-05T01:06:20.044Z,100461.41
2019-05-05T01:09:26.233Z,100463.49
2019-05-05T01:12:30.356Z,100463.98
2019-05-05T01:15:34.591Z,100458.80
2019-05-05T01:18:38.436Z,100462.02
2019-05-05T01:21:42.553Z,100456.86
2019-05-05T01:24:47.149Z,100462.62
2019-05-05T01:27:51.334Z,100466.61
2019-05-05T01:30:59.152Z,100462.30
2019-05-05T01:34:11.536Z,100470.56
2019-05-05T01:37:22.939Z,100472.33
2019-05-05T01:40:35.608Z,100471.89
2019-05-05T01:43:39.891Z,100474.53
2019-05-05T01:46:44.488Z,100475.41
2019-05-05T01:49:48.653Z,100478.02
2019-05-05T01:52:52.887Z,100478.94
2019-05-05T01:55:57.620Z,100479.41
2019-05-05T01:59:01.740Z,100482.41
2019-05-05T02:02:05.993Z,100479.83
2019-05-05T02:05:10.198Z,100480.75
2019-05-05T02:08:15.344Z,100478.14
2019-05-05T02:11:19.407Z,100478.12
2019-05-05T02:14:24.689Z,100480.34
2019-05-05T02:17:28.652Z,100475.17
2019-05-05T02:21:05.180Z,100479.52
2019-05-05T02:24:10.072Z,100482.14
2019-05-05T02:27:14.711Z,100482.59
2019-05-05T02:30:35.895Z,100488.64
2019-05-05T02:33:39.379Z,100492.11
2019-05-05T02:36:45.967Z,100499.41
2019-05-05T02:39:57.899Z,100498.98
2019-05-05T02:42:56.165Z,100517.12
2019-05-05T02:46:09.906Z,100521.45
2019-05-05T02:49:15.435Z,100528.41
2019-05-05T02:52:24.420Z,100535.36
2019-05-05T02:55:27.788Z,100540.58
2019-05-05T02:58:34.741Z,100545.36
2019-05-05T03:01:46.677Z,100555.77
2019-05-05T03:04:53.648Z,100555.30
2019-05-05T03:07:58.647Z,100554.43
2019-05-05T03:11:04.069Z,100557.19
2019-05-05T03:14:10.660Z,100560.27
2019-05-05T03:17:15.349Z,100562.91
2019-05-05T03:20:19.406Z,100563.38
2019-05-05T03:23:24.019Z,100558.19
2019-05-05T03:26:29.075Z,100570.75
2019-05-05T03:29:33.659Z,100573.81
2019-05-05T03:32:38.182Z,100575.09
2019-05-05T03:35:43.639Z,100575.53
2019-05-05T03:38:48.061Z,100572.95
2019-05-05T03:42:14.679Z,100575.11
2019-05-05T03:45:23.668Z,100582.92
2019-05-05T03:48:28.146Z,100597.69
2019-05-05T03:51:34.527Z,100591.16
2019-05-05T03:54:38.568Z,100590.28
2019-05-05T03:57:44.495Z,100593.75
2019-05-05T04:01:20.471Z,100597.22
2019-05-05T04:04:29.381Z,100596.77
2019-05-05T04:07:33.551Z,100593.77
2019-05-05T04:10:38.652Z,100592.02
2019-05-05T04:13:43.779Z,100584.64
2019-05-05T04:17:19.032Z,100589.87
2019-05-05T04:20:35.256Z,100593.76
2019-05-05T04:23:39.490Z,100598.98
2019-05-05T04:26:44.033Z,100595.50
2019-05-05T04:29:48.048Z,100595.92
2019-05-05T04:32:51.892Z,100592.91
2019-05-05T04:35:55.942Z,100597.21
2019-05-05T04:39:00.342Z,100598.53
2019-05-05T04:42:04.923Z,100604.60
2019-05-05T04:45:09.094Z,100605.91
2019-05-05T04:48:35.077Z,100602.87
2019-05-05T04:51:49.527Z,100606.79
2019-05-05T04:54:51.197Z,100604.18
2019-05-05T04:57:55.090Z,100613.29
2019-05-05T05:00:59.208Z,100614.17
2019-05-05T05:04:24.972Z,100616.77
2019-05-05T05:07:28.837Z,100622.86
2019-05-05T05:10:34.572Z,100629.34
2019-05-05T05:13:39.383Z,100634.14
2019-05-05T05:16:43.790Z,100633.25
2019-05-05T05:19:47.996Z,100637.19
2019-05-05T05:22:51.856Z,100640.64
2019-05-05T05:25:56.108Z,100638.88
2019-05-05T05:29:00.499Z,100634.09
2019-05-05T05:32:04.399Z,100641.44
2019-05-05T05:35:08.784Z,100643.61
2019-05-05T05:38:14.025Z,100640.97
2019-05-05T05:41:37.146Z,100644.48
2019-05-05T05:45:00.019Z,100651.41
2019-05-05T05:48:14.962Z,100657.87
2019-05-05T05:51:21.106Z,100660.90
2019-05-05T05:54:24.961Z,100662.12
2019-05-05T05:57:28.876Z,100666.05
2019-05-05T06:00:34.400Z,100659.08
2019-05-05T06:03:38.427Z,100670.83
2019-05-05T06:06:43.905Z,100667.30
2019-05-05T06:09:48.226Z,100667.27
2019-05-05T06:12:54.140Z,100667.24
2019-05-05T06:15:58.420Z,100666.83
2019-05-05T06:19:03.625Z,100669.85
2019-05-05T06:22:08.567Z,100673.77
2019-05-05T06:25:15.902Z,100674.20
2019-05-05T06:28:18.112Z,100678.87
2019-05-05T06:31:21.905Z,100689.65
2019-05-05T06:34:26.292Z,100686.08
2019-05-05T06:37:30.518Z,100683.03
2019-05-05T06:40:46.368Z,100694.83
2019-05-05T06:44:19.850Z,100682.64
2019-05-05T06:47:28.087Z,100687.83
2019-05-05T06:50:31.863Z,100694.32
2019-05-05T06:53:35.849Z,100688.14
2019-05-05T06:56:40.021Z,100693.13
2019-05-05T06:59:44.051Z,100701.41
2019-05-05T07:02:47.881Z,100696.28
2019-05-05T07:05:53.935Z,100698.89
2019-05-05T07:08:57.832Z,100704.22
2019-05-05T07:12:01.850Z,100707.56
2019-05-05T07:15:05.967Z,100703.16
2019-05-05T07:18:10.301Z,100704.86
2019-05-05T07:21:14.662Z,100710.86
2019-05-05T07:24:19.019Z,100717.60
2019-05-05T07:27:24.317Z,100719.64
2019-05-05T07:30:28.718Z,100720.89
2019-05-05T07:33:34.650Z,100717.66
2019-05-05T07:36:45.245Z,100719.40
2019-05-05T07:39:49.574Z,100722.32
2019-05-05T07:42:54.054Z,100721.24
2019-05-05T07:45:57.957Z,100728.24
2019-05-05T07:49:03.743Z,100730.41
2019-05-05T07:52:07.679Z,100732.23
2019-05-05T07:55:14.222Z,100727.04
2019-05-05T07:58:17.887Z,100718.11
2019-05-05T08:01:21.956Z,100708.63
2019-05-05T08:04:25.862Z,100717.27
2019-05-05T08:07:29.959Z,100715.73
2019-05-05T08:10:34.473Z,100729.02
2019-05-05T08:13:38.777Z,100733.37
2019-05-05T08:17:03.742Z,100730.77
2019-05-05T08:20:14.172Z,100738.34
2019-05-05T08:23:35.520Z,100735.77
2019-05-05T08:26:46.770Z,100748.16
2019-05-05T08:29:54.330Z,100744.64
2019-05-05T08:32:58.414Z,100742.34
2019-05-05T08:36:04.618Z,100740.54
2019-05-05T08:39:08.610Z,100746.04
2019-05-05T08:42:14.388Z,100743.02
2019-05-05T08:45:18.260Z,100748.58
2019-05-05T08:48:24.515Z,100744.30
2019-05-05T08:51:27.756Z,100744.00
2019-05-05T08:54:31.829Z,100757.12
2019-05-05T08:57:35.739Z,100753.33
2019-05-05T09:00:39.662Z,100754.07
2019-05-05T09:03:44.460Z,100750.24
2019-05-05T09:06:48.433Z,100752.23
2019-05-05T09:09:54.494Z,100756.13
2019-05-05T09:12:58.003Z,100756.17
2019-05-05T09:16:03.736Z,100757.91
2019-05-05T09:19:14.525Z,100752.02
2019-05-05T09:22:17.814Z,100758.21
2019-05-05T09:25:40.736Z,100747.12
2019-05-05T09:29:09.675Z,100749.77
2019-05-05T09:32:14.149Z,100742.42
2019-05-05T09:35:18.069Z,100731.25
2019-05-05T09:38:23.858Z,100743.38
2019-05-05T09:41:27.770Z,100741.39
2019-05-05T09:44:31.783Z,100732.34
2019-05-05T09:47:35.606Z,100732.50
2019-05-05T09:50:39.495Z,100735.56
2019-05-05T09:53:44.810Z,100731.55
2019-05-05T09:56:48.938Z,100733.41
2019-05-05T09:59:55.397Z,100728.02
2019-05-05T10:02:59.582Z,100744.55
2019-05-05T10:06:05.024Z,100739.41
2019-05-05T10:09:11.140Z,100737.56
2019-05-05T10:12:15.088Z,100737.50
2019-05-05T10:15:19.269Z,100738.85
2019-05-05T10:18:25.386Z,100732.51
2019-05-05T10:21:29.130Z,100732.09
2019-05-05T10:24:37.905Z,100736.84
2019-05-05T10:27:47.384Z,100743.55
2019-05-05T10:30:48.240Z,100746.27
2019-05-05T10:33:56.456Z,100739.96
2019-05-05T10:37:00.322Z,100729.45
2019-05-05T10:40:05.460Z,100723.39
2019-05-05T10:43:09.321Z,100720.30
2019-05-05T10:46:14.378Z,100717.27
2019-05-05T10:49:19.197Z,100725.66
2019-05-05T10:52:23.008Z,100731.64
2019-05-05T10:55:26.913Z,100733.46
2019-05-05T10:58:30.726Z,100733.29
2019-05-05T11:01:34.832Z,100726.73
2019-05-05T11:04:38.741Z,100740.70
2019-05-05T11:07:43.132Z,100731.66
2019-05-05T11:10:47.189Z,100735.44
2019-05-05T11:13:51.070Z,100730.08
2019-05-05T11:16:55.353Z,100734.66
2019-05-05T11:19:59.290Z,100726.26
2019-05-05T11:23:04.857Z,100726.70
2019-05-05T11:26:08.722Z,100733.16
2019-05-05T11:29:13.558Z,100732.70
2019-05-05T11:32:36.862Z,100733.58
2019-05-05T11:35:56.770Z,100733.91
2019-05-05T11:39:00.880Z,100733.96
2019-05-05T11:42:04.758Z,100741.70
2019-05-05T11:45:08.735Z,100735.56
2019-05-05T11:48:14.573Z,100738.48
2019-05-05T11:51:18.535Z,100741.89
2019-05-05T11:54:24.338Z,100743.50
2019-05-05T11:57:27.910Z,100732.27
2019-05-05T12:00:31.835Z,100735.38
2019-05-05T12:03:37.811Z,100736.91
2019-05-05T12:06:41.511Z,100733.28
2019-05-05T12:09:54.860Z,100733.31
2019-05-05T12:12:59.191Z,100744.33
2019-05-05T12:16:05.214Z,100747.15
2019-05-05T12:19:13.763Z,100743.55
2019-05-05T12:22:17.727Z,100743.47
2019-05-05T12:25:39.002Z,100745.44
2019-05-05T12:28:49.517Z,100742.41
2019-05-05T12:31:53.843Z,100739.00
2019-05-05T12:34:58.109Z,100738.13
2019-05-05T12:38:02.251Z,100745.97
2019-05-05T12:41:06.191Z,100743.62
2019-05-05T12:44:14.254Z,100745.14
2019-05-05T12:47:29.987Z,100738.13
2019-05-05T12:50:34.102Z,100738.53
2019-05-05T12:53:38.014Z,100739.76
2019-05-05T12:56:43.963Z,100743.62
2019-05-05T12:59:47.717Z,100740.92
2019-05-05T13:02:53.694Z,100747.95
2019-05-05T13:05:57.291Z,100749.23
2019-05-05T13:09:01.428Z,100747.53
2019-05-05T13:12:05.629Z,100743.48
2019-05-05T13:15:09.702Z,100749.39
2019-05-05T13:18:14.048Z,100746.65
2019-05-05T13:21:27.857Z,100740.16
2019-05-05T13:24:54.067Z,100750.44
2019-05-05T13:27:58.298Z,100749.39
2019-05-05T13:31:02.180Z,100744.70
2019-05-05T13:34:06.500Z,100750.16
2019-05-05T13:37:10.662Z,100746.08
2019-05-05T13:40:14.659Z,100750.30
2019-05-05T13:43:18.571Z,100747.05
2019-05-05T13:46:30.039Z,100748.84
2019-05-05T13:49:38.208Z,100747.08
2019-05-05T13:52:44.201Z,100740.45
2019-05-05T13:55:48.099Z,100740.39
2019-05-05T13:58:52.205Z,100734.34
2019-05-05T14:01:56.463Z,100726.22
2019-05-05T14:05:00.292Z,100717.46
2019-05-05T14:08:04.366Z,100724.48
2019-05-05T14:11:08.607Z,100716.89
2019-05-05T14:14:13.793Z,100715.93
2019-05-05T14:17:18.507Z,100717.64
2019-05-05T14:20:23.979Z,100715.84
2019-05-05T14:23:29.206Z,100713.48
2019-05-05T14:26:35.322Z,100718.37
2019-05-05T14:29:53.098Z,100711.70
2019-05-05T14:32:57.172Z,100712.88
2019-05-05T14:36:19.000Z,100712.58
2019-05-05T14:39:23.914Z,100716.88
2019-05-05T14:42:28.009Z,100719.75
2019-05-05T14:45:34.001Z,100713.68
2019-05-05T14:48:38.033Z,100714.48
2019-05-05T14:51:41.933Z,100713.48
2019-05-05T14:54:46.083Z,100718.27
2019-05-05T14:57:50.614Z,100726.25
2019-05-05T15:00:54.750Z,100710.98
2019-05-05T15:03:58.838Z,100714.00
2019-05-05T15:07:10.803Z,100711.15
2019-05-05T15:10:34.340Z,100715.34
2019-05-05T15:13:38.443Z,100712.36
2019-05-05T15:16:43.757Z,100715.71
2019-05-05T15:19:47.675Z,100715.22
2019-05-05T15:22:51.465Z,100717.95
2019-05-05T15:25:55.597Z,100718.61
2019-05-05T15:29:01.703Z,100721.30
2019-05-05T15:32:05.986Z,100710.95
2019-05-05T15:35:10.367Z,100712.22
2019-05-05T15:38:14.342Z,100712.34
2019-05-05T15:41:18.247Z,100711.68
2019-05-05T15:44:24.137Z,100716.63
2019-05-05T15:47:28.680Z,100712.50
2019-05-05T15:50:32.903Z,100713.68
2019-05-05T15:53:36.708Z,100709.88
2019-05-05T15:56:41.068Z,100716.05
2019-05-05T15:59:44.938Z,100713.53
2019-05-05T16:02:48.839Z,100713.75
2019-05-05T16:05:54.343Z,100707.15
2019-05-05T16:08:58.355Z,100703.56
2019-05-05T16:12:03.776Z,100710.81
2019-05-05T16:15:21.904Z,100704.58
2019-05-05T16:18:33.808Z,100705.80
2019-05-05T16:21:47.981Z,100708.89
2019-05-05T16:25:13.803Z,100718.96
2019-05-05T16:28:17.398Z,100715.28
2019-05-05T16:31:23.604Z,100714.45
2019-05-05T16:34:27.844Z,100714.95
2019-05-05T16:37:33.509Z,100706.53
2019-05-05T16:40:37.467Z,100712.81
2019-05-05T16:43:41.431Z,100719.37
2019-05-05T16:46:45.309Z,100713.12
2019-05-05T16:49:49.539Z,100714.04
2019-05-05T16:52:59.317Z,100715.36
2019-05-05T16:56:04.533Z,100717.71
2019-05-05T16:59:08.646Z,100717.22
2019-05-05T17:02:13.929Z,100725.17
2019-05-05T17:05:18.176Z,100726.46
2019-05-05T17:08:24.449Z,100721.07
2019-05-05T17:11:28.437Z,100718.84
2019-05-05T17:14:40.401Z,100721.25
2019-05-05T17:18:15.359Z,100726.61
2019-05-05T17:21:22.127Z,100728.84
2019-05-05T17:24:26.048Z,100728.40
2019-05-05T17:27:30.691Z,100729.08
2019-05-05T17:30:34.656Z,100734.75
2019-05-05T17:33:38.660Z,100733.09
2019-05-05T17:36:42.727Z,100726.23
2019-05-05T17:39:55.388Z,100730.08
2019-05-05T17:43:25.179Z,100732.53
2019-05-05T17:46:26.957Z,100731.25
2019-05-05T17:49:50.337Z,100737.31
2019-05-05T17:53:11.548Z,100739.91
2019-05-05T17:56:15.688Z,100738.59
2019-05-05T17:59:19.568Z,100733.84
2019-05-05T18:02:24.125Z,100738.98
2019-05-05T18:05:46.222Z,100743.91
2019-05-05T18:08:53.968Z,100741.45
2019-05-05T18:12:26.513Z,100742.91
2019-05-05T18:15:49.671Z,100742.80
2019-05-05T18:18:54.849Z,100749.98
2019-05-05T18:21:59.351Z,100757.77
2019-05-05T18:25:03.809Z,100754.89
2019-05-05T18:28:17.073Z,100760.98
2019-05-05T18:31:13.925Z,100761.26
2019-05-05T18:34:17.848Z,100758.56
2019-05-05T18:37:24.040Z,100757.83
2019-05-05T18:40:27.820Z,100766.02
2019-05-05T18:43:38.929Z,100765.06
2019-05-05T18:46:43.573Z,100772.91
2019-05-05T18:49:48.081Z,100780.88
2019-05-05T18:52:53.877Z,100780.92
2019-05-05T18:55:57.672Z,100775.80
2019-05-05T18:59:04.625Z,100781.10
2019-05-05T19:02:17.346Z,100789.05
2019-05-05T19:05:44.076Z,100782.09
2019-05-05T19:08:54.459Z,100791.92
2019-05-05T19:11:56.891Z,100798.17
2019-05-05T19:15:01.212Z,100796.09
2019-05-05T19:18:06.598Z,100801.98
2019-05-05T19:21:25.437Z,100803.95
2019-05-05T19:24:30.628Z,100807.22
2019-05-05T19:27:34.790Z,100814.92
2019-05-05T19:30:39.050Z,100817.74
2019-05-05T19:33:43.026Z,100814.19
2019-05-05T19:36:47.331Z,100820.19
2019-05-05T19:39:51.449Z,100820.52
2019-05-05T19:42:55.270Z,100821.88
2019-05-05T19:45:59.510Z,100823.28
2019-05-05T19:49:16.777Z,100821.70
2019-05-05T19:52:21.133Z,100823.23
2019-05-05T19:55:25.222Z,100827.66
2019-05-05T19:58:29.201Z,100833.33
2019-05-05T20:01:37.521Z,100833.86
2019-05-05T20:04:38.765Z,100834.00
2019-05-05T20:07:44.050Z,100833.13
2019-05-05T20:10:47.868Z,100832.31
2019-05-05T20:14:04.736Z,100832.67
2019-05-05T20:17:15.822Z,100834.02
2019-05-05T20:20:19.832Z,100835.39
2019-05-05T20:23:24.412Z,100841.36
2019-05-05T20:26:28.321Z,100837.16
2019-05-05T20:29:35.048Z,100838.75
2019-05-05T20:32:59.888Z,100834.65
2019-05-05T20:36:14.512Z,100831.49
2019-05-05T20:39:18.525Z,100841.55
2019-05-05T20:42:22.686Z,100843.42
2019-05-05T20:45:28.766Z,100838.50
2019-05-05T20:48:35.091Z,100832.53
2019-05-05T20:51:38.954Z,100830.35
2019-05-05T20:54:44.088Z,100826.39
2019-05-05T20:57:49.230Z,100829.91
2019-05-05T21:00:54.911Z,100835.69
2019-05-05T21:03:58.738Z,100840.05
2019-05-05T21:07:04.402Z,100837.64
2019-05-05T21:10:08.629Z,100832.22
2019-05-05T21:13:14.370Z,100833.06
2019-05-05T21:16:18.169Z,100835.45
2019-05-05T21:19:22.225Z,100830.64
2019-05-05T21:22:31.298Z,100830.61
2019-05-05T21:25:37.326Z,100835.27
2019-05-05T21:28:41.286Z,100830.09
2019-05-05T21:31:45.326Z,100832.66
2019-05-05T21:34:49.269Z,100833.59
2019-05-05T21:37:54.362Z,100829.30
2019-05-05T21:40:58.995Z,100834.58
2019-05-05T21:44:03.754Z,100834.11
2019-05-05T21:47:07.981Z,100834.58
2019-05-05T21:50:14.472Z,100830.27
2019-05-05T21:53:24.725Z,100827.64
2019-05-05T21:56:37.188Z,100827.58
2019-05-05T21:59:55.261Z,100827.56
2019-05-05T22:02:47.936Z,100823.56
2019-05-05T22:05:53.871Z,100830.64
2019-05-05T22:08:57.871Z,100827.64
2019-05-05T22:12:04.061Z,100836.48
2019-05-05T22:15:07.901Z,100833.50
2019-05-05T22:18:14.314Z,100826.47
2019-05-05T22:21:35.687Z,100827.28
2019-05-05T22:24:38.192Z,100829.23
2019-05-05T22:27:44.006Z,100824.67
2019-05-05T22:30:48.004Z,100832.39
2019-05-05T22:33:51.923Z,100830.58
2019-05-05T22:36:55.968Z,100830.63
2019-05-05T22:40:00.291Z,100824.44
2019-05-05T22:43:04.660Z,100830.53
2019-05-05T22:46:08.495Z,100822.70
2019-05-05T22:49:14.573Z,100826.78
2019-05-05T22:52:18.490Z,100828.96
2019-05-05T22:55:24.580Z,100822.88
2019-05-05T22:58:28.717Z,100828.56
2019-05-05T23:01:32.872Z,100828.64
2019-05-05T23:04:47.712Z,100828.26
2019-05-05T23:07:51.979Z,100822.59
2019-05-05T23:10:55.807Z,100820.42
2019-05-05T23:14:17.872Z,100821.44
2019-05-05T23:17:40.815Z,100819.86
2019-05-05T23:21:08.698Z,100821.27
2019-05-05T23:24:34.509Z,100831.39
2019-05-05T23:27:47.866Z,100824.45
2019-05-05T23:30:54.562Z,100834.02
2019-05-05T23:33:58.065Z,100831.88
2019-05-05T23:37:04.227Z,100834.44
2019-05-05T23:40:08.605Z,100831.38
2019-05-05T23:43:13.954Z,100830.95
2019-05-05T23:46:17.989Z,100828.48
2019-05-05T23:49:24.027Z,100823.73
2019-05-05T23:52:27.815Z,100823.45
2019-05-05T23:55:31.887Z,100820.47
2019-05-05T23:58:35.783Z,100822.63
